Overview Statistics Trail Chart Weather Telemetry Raw packets
 

This is the latest recevied weather packets stored in our database for station/object Krozingen. If no packets are shown the sender has not sent any weather packets the latest 10 day(s).

<< 15 16 17 18 19 20 >>
Time Temp. Humidity Pressure Rain* Wind** Luminosity Snow
1787810530 18.33° C 91% 1012.8 hPa 0 mm - - -
1787808730 17.78° C 91% 1012.6 hPa 0 mm - - -
1787806930 17.78° C 90% 1012 hPa 0 mm - - -
1787805129 17.22° C 91% 1012.1 hPa 0 mm - - -
1787803330 17.22° C 91% 1011.8 hPa 0 mm - - -
1787801529 17.22° C 91% 1012.1 hPa 0 mm - - -
1787799730 17.22° C 92% 1012.1 hPa 0 mm - - -
1787797929 17.22° C 91% 1012.2 hPa 0 mm - - -
1787796130 17.22° C 91% 1011.9 hPa 0 mm - - -
1787794330 17.78° C 90% 1011.9 hPa 0 mm - - -
1787792530 17.78° C 90% 1012.1 hPa 0 mm - - -
1787790731 17.78° C 89% 1012.1 hPa 0 mm - - -
1787788931 18.33° C 89% 1012.3 hPa 0 mm - - -
1787787131 18.33° C 88% 1012.6 hPa 0 mm - - -
1787785331 18.89° C 87% 1012.7 hPa 0 mm - - -
1787783531 18.89° C 88% 1012.9 hPa 0 mm - - -
1787781731 19.44° C 86% 1012.7 hPa 0 mm - - -
1787779931 19.44° C 86% 1012.9 hPa 0 mm - - -
1787778131 20.56° C 84% 1012.9 hPa 0 mm - - -
1787776332 21.11° C 81% 1013.1 hPa 0 mm - - -
1787774532 21.67° C 78% 1013.2 hPa 0 mm - - -
1787772730 22.22° C 75% 1013.2 hPa 0 mm - - -
1787770931 23.33° C 71% 1012.9 hPa 0 mm - - -
1787769131 25° C 67% 1013 hPa 0 mm - - -
1787767330 26.11° C 62% 1012.9 hPa 0 mm - - -

* Rain since midnight (hover to see other rain measurements)
** Current wind speed in m/s (hover to see current wind gust speed)